Time;durP1;ratioP1;P1;durP2;ratioP2;P2;SDS_P1;SDS_P2;PMS_P1;PMS_P2;Temp;Humidity;BMP_temperature;BMP_pressure;BME280_temperature;BME280_humidity;BME280_pressure;Samples;Min_cycle;Max_cycle;Signal;HPM_P1;HPM_P2
2023/11/18 00:00:20;;;;;;;10.50;8.27;;;8.20;79.10;;;;;;4949288;29;20023;-75
2023/11/18 00:02:46;;;;;;;11.20;8.07;;;8.20;79.10;;;;;;4937585;29;20449;-74
2023/11/18 00:05:13;;;;;;;10.55;7.88;;;8.20;79.10;;;;;;4952078;29;20062;-75
2023/11/18 00:07:39;;;;;;;10.68;8.23;;;8.20;79.10;;;;;;4954090;29;20134;-74
2023/11/18 00:10:06;;;;;;;10.95;8.15;;;8.30;79.80;;;;;;4934089;29;20063;-74
2023/11/18 00:12:35;;;;;;;9.80;7.65;;;8.20;79.10;;;;;;4903592;29;20035;-75
2023/11/18 00:15:03;;;;;;;10.18;7.45;;;8.20;79.10;;;;;;4952936;28;20105;-74
2023/11/18 00:17:30;;;;;;;11.35;8.55;;;8.20;79.10;;;;;;4951039;29;20502;-74
2023/11/18 00:19:56;;;;;;;10.52;7.88;;;8.20;79.10;;;;;;4952651;29;20403;-74
2023/11/18 00:22:22;;;;;;;11.73;8.65;;;8.30;79.20;;;;;;4950662;29;20067;-74
2023/11/18 00:24:48;;;;;;;11.18;8.38;;;8.20;79.10;;;;;;4936539;29;20138;-74
2023/11/18 00:27:15;;;;;;;11.43;8.45;;;8.30;79.20;;;;;;4951760;28;20082;-75
2023/11/18 00:29:41;;;;;;;10.63;7.90;;;8.30;79.20;;;;;;4950938;29;20027;-74
2023/11/18 00:32:07;;;;;;;10.15;7.93;;;8.30;79.20;;;;;;4936532;29;20020;-74
2023/11/18 00:34:33;;;;;;;10.55;7.78;;;8.30;79.20;;;;;;4953800;29;20102;-74
2023/11/18 00:37:00;;;;;;;11.07;7.82;;;8.30;79.20;;;;;;4951864;29;20027;-74
2023/11/18 00:39:27;;;;;;;10.15;7.43;;;8.30;79.20;;;;;;4952687;29;20117;-74
2023/11/18 00:41:53;;;;;;;10.68;7.63;;;8.30;79.20;;;;;;4942666;29;20198;-74
2023/11/18 00:44:19;;;;;;;9.77;7.32;;;8.30;79.20;;;;;;4952831;29;20039;-75
2023/11/18 00:46:45;;;;;;;10.85;7.90;;;8.30;79.20;;;;;;4934675;29;20044;-74
2023/11/18 00:49:13;;;;;;;10.18;7.90;;;8.30;79.20;;;;;;4920436;29;20066;-74
2023/11/18 00:51:41;;;;;;;11.32;8.13;;;8.30;79.20;;;;;;4952742;29;20035;-74
2023/11/18 00:54:07;;;;;;;11.45;7.95;;;8.30;79.20;;;;;;4929695;29;20019;-74
2023/11/18 00:56:33;;;;;;;11.05;7.82;;;8.30;79.20;;;;;;4934776;29;20050;-75
2023/11/18 00:58:59;;;;;;;10.07;7.68;;;8.30;79.20;;;;;;4952956;29;20027;-74
2023/11/18 01:01:24;;;;;;;10.73;7.75;;;8.30;79.20;;;;;;4952393;29;20039;-75
2023/11/18 01:03:50;;;;;;;10.27;7.65;;;8.30;79.20;;;;;;4951384;29;20043;-75
2023/11/18 01:06:16;;;;;;;11.80;7.93;;;8.30;79.20;;;;;;4930411;29;20059;-76
2023/11/18 01:08:46;;;;;;;10.90;7.78;;;8.30;79.20;;;;;;4951400;29;20027;-74
2023/11/18 01:11:18;;;;;;;10.18;8.10;;;8.30;79.20;;;;;;4951178;29;20054;-74
2023/11/18 01:13:51;;;;;;;9.80;7.43;;;8.30;79.30;;;;;;4950135;29;20050;-75
2023/11/18 01:16:17;;;;;;;10.35;7.93;;;8.30;79.30;;;;;;4950042;29;20053;-76
2023/11/18 01:18:43;;;;;;;9.82;7.28;;;8.30;79.20;;;;;;4920101;29;20472;-75
2023/11/18 01:21:09;;;;;;;11.80;8.55;;;8.30;79.30;;;;;;4934559;29;20035;-74
2023/11/18 01:23:38;;;;;;;12.40;8.20;;;8.30;79.20;;;;;;4952194;29;20451;-75
2023/11/18 01:26:05;;;;;;;9.77;7.43;;;8.30;79.30;;;;;;4935345;29;20034;-75
2023/11/18 01:28:37;;;;;;;9.82;7.35;;;8.30;79.20;;;;;;4950229;28;20035;-75
2023/11/18 01:31:09;;;;;;;9.40;7.63;;;8.30;79.30;;;;;;4951564;28;20039;-74
2023/11/18 01:33:41;;;;;;;9.75;7.47;;;8.30;79.20;;;;;;4966903;28;20031;-74
2023/11/18 01:36:08;;;;;;;11.02;7.53;;;8.30;79.30;;;;;;4950938;29;20086;-75
2023/11/18 01:38:35;;;;;;;11.10;8.05;;;8.20;79.20;;;;;;4950109;28;20107;-75
2023/11/18 01:41:01;;;;;;;10.88;7.63;;;8.30;79.30;;;;;;4956074;29;20035;-74
2023/11/18 01:43:27;;;;;;;9.65;7.50;;;8.30;79.30;;;;;;4955479;29;20024;-75
2023/11/18 01:45:53;;;;;;;10.55;7.68;;;8.20;79.20;;;;;;4956898;29;20042;-74
2023/11/18 01:48:22;;;;;;;9.60;7.15;;;8.20;79.30;;;;;;4955148;29;20126;-74
2023/11/18 01:50:49;;;;;;;10.13;7.40;;;8.20;79.30;;;;;;4953265;29;20035;-74
2023/11/18 01:53:15;;;;;;;10.15;7.25;;;8.20;79.20;;;;;;4923181;29;20101;-75
2023/11/18 01:55:42;;;;;;;10.30;7.68;;;8.20;79.20;;;;;;4934949;29;20063;-75
2023/11/18 01:58:10;;;;;;;10.18;8.02;;;8.20;79.20;;;;;;4955272;29;20041;-75
2023/11/18 02:00:39;;;;;;;9.45;6.95;;;8.20;79.20;;;;;;4936599;29;20027;-74
2023/11/18 02:03:05;;;;;;;11.25;7.70;;;8.20;79.30;;;;;;4956283;29;20028;-74
2023/11/18 02:05:32;;;;;;;10.13;7.72;;;8.20;79.20;;;;;;4938256;29;20039;-74
2023/11/18 02:08:00;;;;;;;9.40;7.18;;;8.10;79.20;;;;;;4954816;29;20039;-75
2023/11/18 02:10:27;;;;;;;11.88;8.30;;;8.20;79.20;;;;;;4951634;29;20027;-75
2023/11/18 02:13:06;;;;;;;10.27;7.78;;;8.10;79.20;;;;;;4954527;29;20051;-74
2023/11/18 02:15:35;;;;;;;10.13;7.57;;;8.10;79.20;;;;;;4945568;29;20480;-74
2023/11/18 02:18:06;;;;;;;10.55;7.40;;;8.10;79.20;;;;;;4937342;29;20027;-74
2023/11/18 02:20:34;;;;;;;10.23;7.60;;;8.10;79.20;;;;;;4953451;29;20031;-75
2023/11/18 02:23:01;;;;;;;8.98;7.07;;;8.10;79.20;;;;;;4952032;29;20677;-74
2023/11/18 02:25:28;;;;;;;10.70;7.97;;;8.10;79.20;;;;;;4942946;29;20118;-74
2023/11/18 02:27:54;;;;;;;10.82;7.95;;;8.10;79.20;;;;;;4954459;29;20487;-74
2023/11/18 02:30:20;;;;;;;10.55;7.82;;;8.10;79.20;;;;;;4953441;29;20035;-75
2023/11/18 02:33:05;;;;;;;10.30;7.47;;;8.10;79.20;;;;;;4948297;29;20483;-75
2023/11/18 02:35:37;;;;;;;9.82;7.57;;;8.10;79.30;;;;;;4946632;29;20380;-74
2023/11/18 02:38:04;;;;;;;9.77;7.05;;;8.10;79.20;;;;;;4955333;28;20086;-74
2023/11/18 02:40:41;;;;;;;10.27;7.05;;;8.10;79.20;;;;;;4938070;29;20432;-75
2023/11/18 02:43:09;;;;;;;11.00;7.72;;;8.10;79.20;;;;;;4954885;28;20110;-75
2023/11/18 02:45:35;;;;;;;10.27;7.70;;;8.10;79.20;;;;;;4950887;28;20098;-75
2023/11/18 02:48:02;;;;;;;9.95;7.22;;;8.10;79.20;;;;;;4950212;28;20537;-74
2023/11/18 02:50:29;;;;;;;10.70;7.70;;;8.10;79.20;;;;;;4954118;28;20031;-74
2023/11/18 02:52:54;;;;;;;10.52;7.30;;;8.10;79.20;;;;;;4938049;29;20475;-74
2023/11/18 02:55:24;;;;;;;10.20;7.32;;;8.10;79.20;;;;;;4929454;29;20070;-74
2023/11/18 02:57:53;;;;;;;9.43;7.10;;;8.10;79.20;;;;;;4954716;28;20046;-74
2023/11/18 03:00:22;;;;;;;10.30;7.13;;;8.10;79.20;;;;;;4953668;29;20098;-75
2023/11/18 03:02:50;;;;;;;9.68;7.05;;;8.10;79.20;;;;;;4953605;29;20027;-74
2023/11/18 03:05:16;;;;;;;10.82;8.05;;;8.10;79.20;;;;;;4954908;28;20038;-74
2023/11/18 03:07:44;;;;;;;10.63;7.35;;;8.10;79.20;;;;;;4953657;29;20058;-74
2023/11/18 03:10:12;;;;;;;10.45;7.55;;;8.10;79.20;;;;;;4953845;29;20142;-75
2023/11/18 03:12:38;;;;;;;10.90;7.68;;;8.10;79.20;;;;;;4951608;29;20031;-74
2023/11/18 03:15:11;;;;;;;10.45;8.00;;;8.10;79.20;;;;;;4946687;29;20052;-75
2023/11/18 03:17:38;;;;;;;10.57;8.23;;;8.10;79.30;;;;;;4946075;29;20040;-75
2023/11/18 03:20:08;;;;;;;11.27;8.15;;;8.10;79.20;;;;;;4925543;29;20035;-74
2023/11/18 03:22:34;;;;;;;11.40;8.07;;;8.10;79.30;;;;;;4933219;29;20114;-75
2023/11/18 03:25:00;;;;;;;11.23;7.68;;;8.10;79.30;;;;;;4949835;29;20110;-76
2023/11/18 03:27:26;;;;;;;10.57;7.32;;;8.10;79.30;;;;;;4937485;29;20043;-75
2023/11/18 03:29:52;;;;;;;11.77;8.15;;;8.10;79.30;;;;;;4939937;29;20122;-75
2023/11/18 03:32:18;;;;;;;11.15;8.05;;;8.10;79.30;;;;;;4934796;29;20112;-75
2023/11/18 03:34:44;;;;;;;11.25;8.25;;;8.10;79.30;;;;;;4952314;29;20050;-74
2023/11/18 03:37:10;;;;;;;10.93;7.90;;;8.10;79.30;;;;;;4934819;29;20035;-74
2023/11/18 03:39:36;;;;;;;11.77;8.63;;;8.10;79.30;;;;;;4934237;29;20050;-74
2023/11/18 03:42:01;;;;;;;11.80;8.32;;;8.10;79.30;;;;;;4953005;29;20106;-75
2023/11/18 03:44:27;;;;;;;12.13;8.88;;;8.10;79.30;;;;;;4920879;29;20034;-75
2023/11/18 03:46:53;;;;;;;11.40;8.18;;;8.20;79.30;;;;;;4937264;29;20527;-74
2023/11/18 03:49:20;;;;;;;10.90;8.57;;;8.10;79.20;;;;;;4953561;29;20039;-74
2023/11/18 03:51:46;;;;;;;12.23;8.02;;;8.10;79.20;;;;;;4952416;29;20391;-75
2023/11/18 03:54:12;;;;;;;12.48;8.82;;;8.20;79.30;;;;;;4952933;29;20028;-74
2023/11/18 03:56:39;;;;;;;11.50;7.75;;;8.20;79.30;;;;;;4954138;28;20040;-74
2023/11/18 03:59:04;;;;;;;11.43;8.77;;;8.10;79.30;;;;;;4951840;29;20047;-74
2023/11/18 04:01:31;;;;;;;11.13;8.07;;;8.20;79.30;;;;;;4952071;28;20031;-75
2023/11/18 04:03:56;;;;;;;12.90;8.48;;;8.10;79.30;;;;;;4951571;29;20023;-75
2023/11/18 04:06:24;;;;;;;11.75;8.48;;;8.20;79.40;;;;;;4948791;29;20432;-74
2023/11/18 04:08:50;;;;;;;12.43;8.73;;;8.20;79.40;;;;;;4952427;29;20044;-75
2023/11/18 04:11:16;;;;;;;11.43;8.05;;;8.20;79.40;;;;;;4951503;29;20039;-76
2023/11/18 04:13:42;;;;;;;12.32;8.35;;;8.20;79.40;;;;;;4929767;29;20063;-74
2023/11/18 04:16:13;;;;;;;11.25;8.45;;;8.20;79.30;;;;;;4917650;29;20032;-74
2023/11/18 04:18:40;;;;;;;12.45;8.25;;;8.20;79.40;;;;;;4953710;29;20031;-75
2023/11/18 04:21:10;;;;;;;12.05;8.48;;;8.20;79.30;;;;;;4953081;29;20027;-74
2023/11/18 04:23:40;;;;;;;12.13;8.65;;;8.20;79.30;;;;;;4936182;29;20134;-76
2023/11/18 04:26:07;;;;;;;10.48;7.93;;;8.20;79.40;;;;;;4936567;29;20027;-75
2023/11/18 04:28:33;;;;;;;12.93;9.43;;;8.20;79.30;;;;;;4952320;29;20039;-74
2023/11/18 04:30:59;;;;;;;11.93;8.50;;;8.20;79.40;;;;;;4953507;28;20035;-74
2023/11/18 04:33:25;;;;;;;12.00;8.27;;;8.30;79.40;;;;;;4951833;29;20050;-74
2023/11/18 04:35:51;;;;;;;12.20;8.63;;;8.20;79.40;;;;;;4936270;29;20465;-74
2023/11/18 04:38:18;;;;;;;11.48;8.27;;;8.30;79.40;;;;;;4953562;29;20118;-75
2023/11/18 04:40:45;;;;;;;12.25;8.50;;;8.30;79.40;;;;;;4953727;29;20032;-75
2023/11/18 04:43:15;;;;;;;12.00;8.50;;;8.30;79.40;;;;;;4926644;29;20083;-75
2023/11/18 04:45:42;;;;;;;13.10;8.98;;;8.30;79.40;;;;;;4950091;29;20115;-75
2023/11/18 04:48:08;;;;;;;12.85;8.88;;;8.30;79.40;;;;;;4953865;29;20081;-75
2023/11/18 04:50:34;;;;;;;12.65;8.93;;;8.30;79.40;;;;;;4951489;29;20066;-75
2023/11/18 04:53:00;;;;;;;13.63;9.38;;;8.30;79.40;;;;;;4952423;29;20046;-74
2023/11/18 04:55:26;;;;;;;12.25;8.77;;;8.30;79.40;;;;;;4951401;28;20098;-74
2023/11/18 04:57:52;;;;;;;12.60;8.55;;;8.30;79.40;;;;;;4951242;29;20035;-75
2023/11/18 05:00:19;;;;;;;12.85;8.77;;;8.30;79.40;;;;;;4952408;28;20035;-75
2023/11/18 05:02:48;;;;;;;13.40;9.13;;;8.30;79.40;;;;;;4951565;28;20042;-75
2023/11/18 05:05:15;;;;;;;11.73;8.23;;;8.30;79.40;;;;;;4951049;29;21055;-75
2023/11/18 05:07:42;;;;;;;12.65;8.85;;;8.30;79.40;;;;;;4935939;29;20051;-75
2023/11/18 05:10:09;;;;;;;13.10;9.20;;;8.30;79.40;;;;;;4932091;29;20023;-74
2023/11/18 05:12:36;;;;;;;11.98;8.27;;;8.30;79.40;;;;;;4948392;29;20031;-74
2023/11/18 05:15:06;;;;;;;12.40;9.07;;;8.30;79.40;;;;;;4949775;28;20034;-75
2023/11/18 05:17:36;;;;;;;12.23;9.30;;;8.30;79.40;;;;;;4949811;29;20395;-75
2023/11/18 05:20:08;;;;;;;11.15;8.10;;;8.30;79.40;;;;;;4949155;29;20030;-76
2023/11/18 05:22:36;;;;;;;12.32;8.50;;;8.30;79.40;;;;;;4951428;29;20042;-74
2023/11/18 05:25:05;;;;;;;12.35;8.38;;;8.30;79.40;;;;;;4951441;29;20054;-74
2023/11/18 05:27:31;;;;;;;12.20;8.73;;;8.40;79.50;;;;;;4952384;29;20043;-74
2023/11/18 05:29:59;;;;;;;12.35;9.10;;;8.40;79.40;;;;;;4951706;29;20610;-75
2023/11/18 05:32:28;;;;;;;13.90;8.85;;;8.40;79.50;;;;;;4950827;29;20058;-76
2023/11/18 05:34:55;;;;;;;13.15;9.50;;;8.40;79.50;;;;;;4948455;29;20641;-74
2023/11/18 05:37:21;;;;;;;12.32;8.75;;;8.40;79.40;;;;;;4948207;29;20091;-75
2023/11/18 05:39:49;;;;;;;13.13;9.38;;;8.40;79.40;;;;;;4952619;29;20091;-75
2023/11/18 05:42:15;;;;;;;11.60;8.52;;;8.40;79.40;;;;;;4951206;29;20039;-75
2023/11/18 05:44:42;;;;;;;14.13;9.00;;;8.40;79.50;;;;;;4952883;28;20036;-76
2023/11/18 05:47:11;;;;;;;11.82;9.00;;;8.40;79.40;;;;;;4923344;29;20032;-75
2023/11/18 05:49:38;;;;;;;11.98;9.13;;;8.40;79.40;;;;;;4935305;29;20119;-74
2023/11/18 05:52:04;;;;;;;12.65;8.88;;;8.40;79.40;;;;;;4950281;29;20079;-74
2023/11/18 05:54:30;;;;;;;12.27;8.63;;;8.40;79.40;;;;;;4951284;28;20510;-74
2023/11/18 05:56:56;;;;;;;12.20;8.63;;;8.40;79.40;;;;;;4950552;29;20035;-75
2023/11/18 05:59:23;;;;;;;12.05;9.13;;;8.50;79.50;;;;;;4949289;29;20035;-74
2023/11/18 06:01:49;;;;;;;12.65;9.52;;;8.40;79.40;;;;;;4950404;29;20032;-74
2023/11/18 06:04:15;;;;;;;11.38;8.57;;;8.50;79.50;;;;;;4951008;29;20043;-76
2023/11/18 06:06:42;;;;;;;13.20;9.15;;;8.50;79.50;;;;;;4932663;29;20051;-75
2023/11/18 06:09:17;;;;;;;13.05;9.32;;;8.50;79.50;;;;;;4951822;29;20048;-74
2023/11/18 06:11:45;;;;;;;12.60;9.25;;;8.50;79.50;;;;;;4952073;29;20031;-76
2023/11/18 06:14:12;;;;;;;13.40;9.57;;;8.40;79.40;;;;;;4950435;29;20110;-75
2023/11/18 06:16:39;;;;;;;12.70;8.80;;;8.40;79.40;;;;;;4945082;29;20122;-74
2023/11/18 06:19:06;;;;;;;13.25;9.43;;;8.50;79.50;;;;;;4944796;29;20410;-74
2023/11/18 06:21:32;;;;;;;11.68;8.48;;;8.50;79.50;;;;;;4934661;29;20111;-74
2023/11/18 06:23:59;;;;;;;11.57;8.93;;;8.50;79.50;;;;;;4952299;28;20035;-75
2023/11/18 06:26:28;;;;;;;11.88;8.40;;;8.50;79.50;;;;;;4944178;29;20575;-74
2023/11/18 06:28:55;;;;;;;12.32;9.57;;;8.50;79.50;;;;;;4956065;29;20078;-74
2023/11/18 06:31:21;;;;;;;11.43;8.98;;;8.50;79.50;;;;;;4954119;29;20039;-74
2023/11/18 06:33:47;;;;;;;12.10;9.13;;;8.50;79.50;;;;;;4937831;29;20031;-75
2023/11/18 06:36:13;;;;;;;12.93;9.45;;;8.50;79.50;;;;;;4935693;29;20400;-74
2023/11/18 06:38:40;;;;;;;14.30;10.18;;;8.50;79.50;;;;;;4953621;29;20011;-75
2023/11/18 06:41:10;;;;;;;11.70;9.18;;;8.50;79.50;;;;;;4954361;28;20031;-74
2023/11/18 06:43:51;;;;;;;12.43;9.35;;;8.50;79.50;;;;;;4955941;28;20039;-74
2023/11/18 06:46:20;;;;;;;12.02;8.95;;;8.50;79.50;;;;;;4954354;29;20036;-74
2023/11/18 06:48:48;;;;;;;12.68;9.07;;;8.60;79.50;;;;;;4947547;28;20034;-75
2023/11/18 06:51:15;;;;;;;12.48;9.45;;;8.50;79.50;;;;;;4936453;29;20039;-74
2023/11/18 06:53:41;;;;;;;13.07;9.77;;;8.50;79.50;;;;;;4954589;29;20555;-75
2023/11/18 06:56:07;;;;;;;11.82;8.57;;;8.50;79.50;;;;;;4953350;29;20067;-75
2023/11/18 06:58:33;;;;;;;12.73;9.77;;;8.50;79.50;;;;;;4953296;29;20032;-74
2023/11/18 07:00:59;;;;;;;11.95;9.07;;;8.60;79.50;;;;;;4954093;29;20039;-75
2023/11/18 07:03:25;;;;;;;12.27;8.98;;;8.60;79.50;;;;;;4952772;29;20399;-74
2023/11/18 07:05:51;;;;;;;11.63;8.77;;;8.60;79.50;;;;;;4953185;29;20391;-75
2023/11/18 07:08:17;;;;;;;11.88;9.20;;;8.50;79.50;;;;;;4954103;29;20054;-75
2023/11/18 07:10:42;;;;;;;13.35;9.88;;;8.50;79.50;;;;;;4953208;29;20039;-75
2023/11/18 07:13:08;;;;;;;12.18;9.38;;;8.60;79.50;;;;;;4935200;29;20114;-75
2023/11/18 07:15:35;;;;;;;11.20;8.88;;;8.60;79.50;;;;;;4931426;29;20182;-75
2023/11/18 07:18:02;;;;;;;11.90;9.35;;;8.60;79.50;;;;;;4951448;29;20515;-75
2023/11/18 07:20:27;;;;;;;12.80;8.85;;;8.60;79.50;;;;;;4952728;29;20038;-75
2023/11/18 07:22:54;;;;;;;10.93;8.25;;;8.50;79.50;;;;;;4933404;29;20035;-76
2023/11/18 07:25:20;;;;;;;10.88;8.77;;;8.60;79.50;;;;;;4952284;29;20034;-75
2023/11/18 07:27:46;;;;;;;10.27;7.75;;;8.60;79.50;;;;;;4951265;28;20047;-75
2023/11/18 07:30:12;;;;;;;12.48;8.77;;;8.60;79.50;;;;;;4948374;29;20027;-75
2023/11/18 07:32:40;;;;;;;10.70;8.13;;;8.60;79.50;;;;;;4945775;28;20069;-75
2023/11/18 07:35:09;;;;;;;10.95;8.05;;;8.60;79.50;;;;;;4937633;29;20443;-75
2023/11/18 07:37:37;;;;;;;12.63;8.52;;;8.60;79.50;;;;;;4933268;29;20041;-76
2023/11/18 07:40:05;;;;;;;11.55;7.97;;;8.60;79.50;;;;;;4953075;28;20031;-75
2023/11/18 07:42:34;;;;;;;10.73;7.97;;;8.60;79.50;;;;;;4951358;29;20028;-75
2023/11/18 07:45:03;;;;;;;11.50;8.02;;;8.60;79.60;;;;;;4952023;29;20094;-74
2023/11/18 07:47:34;;;;;;;11.48;8.50;;;8.60;79.50;;;;;;4949130;28;20047;-74
2023/11/18 07:50:00;;;;;;;9.50;7.68;;;8.60;79.50;;;;;;4949834;29;20031;-76
2023/11/18 07:52:27;;;;;;;10.55;8.20;;;8.60;79.50;;;;;;4937864;29;20083;-74
2023/11/18 07:54:54;;;;;;;10.27;7.75;;;8.60;79.50;;;;;;4950439;29;20040;-76
2023/11/18 07:57:19;;;;;;;8.77;7.35;;;8.60;79.50;;;;;;4936786;29;20042;-74
2023/11/18 07:59:46;;;;;;;10.80;7.70;;;8.60;79.60;;;;;;4951535;28;20372;-74
2023/11/18 08:02:14;;;;;;;9.50;7.43;;;8.70;79.60;;;;;;4951709;29;20035;-75
2023/11/18 08:04:41;;;;;;;10.10;8.07;;;8.60;79.50;;;;;;4936166;29;20368;-75
2023/11/18 08:07:07;;;;;;;9.05;7.28;;;8.60;79.50;;;;;;4950217;29;20134;-75
2023/11/18 08:09:33;;;;;;;10.10;7.78;;;8.60;79.50;;;;;;4953657;29;20075;-75
2023/11/18 08:11:59;;;;;;;10.55;7.80;;;8.60;79.50;;;;;;4946585;28;20055;-76
2023/11/18 08:14:24;;;;;;;9.63;7.63;;;8.60;79.50;;;;;;4950018;29;20042;-76
2023/11/18 08:16:51;;;;;;;11.48;8.32;;;8.70;79.60;;;;;;4952466;29;20106;-75
2023/11/18 08:19:17;;;;;;;9.85;7.53;;;8.60;79.50;;;;;;4951188;29;20039;-76
2023/11/18 08:21:43;;;;;;;9.00;6.90;;;8.70;79.60;;;;;;4952652;29;20043;-75
2023/11/18 08:24:08;;;;;;;9.43;7.15;;;8.60;79.50;;;;;;4930142;29;20031;-74
2023/11/18 08:26:35;;;;;;;9.10;6.97;;;8.70;79.60;;;;;;4948550;29;20042;-74
2023/11/18 08:29:01;;;;;;;9.27;6.80;;;8.70;79.60;;;;;;4952142;29;20035;-74
2023/11/18 08:31:27;;;;;;;8.52;6.82;;;8.70;79.60;;;;;;4950172;29;20031;-75
2023/11/18 08:33:54;;;;;;;9.18;6.72;;;8.70;79.60;;;;;;4949060;29;20158;-76
2023/11/18 08:36:27;;;;;;;10.13;7.53;;;8.70;79.60;;;;;;4951581;29;20039;-75
2023/11/18 08:38:53;;;;;;;8.27;6.43;;;8.70;79.60;;;;;;4953279;29;20055;-75
2023/11/18 08:41:19;;;;;;;9.35;6.97;;;8.70;79.60;;;;;;4952943;28;20035;-74
2023/11/18 08:43:49;;;;;;;10.40;6.68;;;8.70;79.50;;;;;;4951602;29;20062;-76
2023/11/18 08:46:15;;;;;;;9.07;7.03;;;8.70;79.50;;;;;;4935385;29;20048;-74
2023/11/18 08:48:41;;;;;;;8.57;6.50;;;8.70;79.50;;;;;;4953228;28;20034;-75
2023/11/18 08:51:08;;;;;;;9.75;7.57;;;8.70;79.50;;;;;;4950405;29;20392;-74
2023/11/18 08:53:40;;;;;;;8.25;5.85;;;8.70;79.50;;;;;;4964900;28;20058;-74
2023/11/18 08:56:13;;;;;;;8.82;6.57;;;8.70;79.50;;;;;;4950713;29;20534;-76
2023/11/18 08:58:49;;;;;;;8.55;6.32;;;8.80;79.60;;;;;;4950827;29;20043;-74
2023/11/18 09:01:15;;;;;;;8.65;6.47;;;8.70;79.50;;;;;;4947905;28;21098;-74
2023/11/18 09:03:48;;;;;;;9.43;7.13;;;8.70;79.50;;;;;;4951340;29;20520;-76
2023/11/18 09:06:17;;;;;;;8.52;6.43;;;8.70;79.60;;;;;;4949554;29;20181;-75
2023/11/18 09:08:52;;;;;;;9.07;6.82;;;8.80;79.60;;;;;;4952111;28;20383;-73
2023/11/18 09:11:19;;;;;;;8.63;6.57;;;8.70;79.50;;;;;;4952081;29;20038;-74
2023/11/18 09:13:49;;;;;;;9.35;6.68;;;8.80;79.60;;;;;;4949878;28;20059;-73
2023/11/18 09:16:15;;;;;;;9.32;6.93;;;8.80;79.60;;;;;;4936845;29;20094;-74
2023/11/18 09:18:44;;;;;;;8.90;6.72;;;8.80;79.60;;;;;;4952950;29;20042;-73
2023/11/18 09:21:14;;;;;;;9.02;6.40;;;8.80;79.60;;;;;;4951961;29;20039;-73
2023/11/18 09:23:44;;;;;;;8.90;6.47;;;8.80;79.70;;;;;;4944760;29;20031;-73
2023/11/18 09:26:10;;;;;;;9.18;6.22;;;8.80;79.60;;;;;;4947119;28;20039;-73
2023/11/18 09:28:37;;;;;;;9.02;6.68;;;8.80;79.60;;;;;;4935653;29;20484;-73
2023/11/18 09:31:04;;;;;;;8.70;6.22;;;8.80;79.60;;;;;;4953678;29;20023;-73
2023/11/18 09:33:34;;;;;;;9.90;6.72;;;8.90;79.60;;;;;;4952427;29;20106;-74
2023/11/18 09:36:01;;;;;;;8.27;5.85;;;8.80;79.60;;;;;;4954259;29;20125;-74
2023/11/18 09:38:31;;;;;;;8.70;6.00;;;8.80;79.60;;;;;;4936399;29;20506;-73
2023/11/18 09:41:02;;;;;;;10.05;7.18;;;8.90;79.60;;;;;;4952270;29;20054;-73
2023/11/18 09:43:47;;;;;;;9.15;6.35;;;8.90;79.60;;;;;;4953550;28;20039;-73
2023/11/18 09:46:14;;;;;;;8.27;5.78;;;8.90;79.60;;;;;;4945463;29;20058;-73
2023/11/18 09:48:45;;;;;;;9.35;6.40;;;8.90;79.60;;;;;;4952178;29;20476;-73
2023/11/18 09:51:20;;;;;;;9.70;6.55;;;8.90;79.60;;;;;;4945679;29;20035;-74
2023/11/18 09:53:55;;;;;;;9.95;6.25;;;8.90;79.60;;;;;;4950373;29;20032;-73
2023/11/18 09:56:37;;;;;;;9.85;7.03;;;8.90;79.60;;;;;;4920893;29;20039;-73
2023/11/18 09:59:19;;;;;;;9.38;6.03;;;8.90;79.60;;;;;;4952108;28;20039;-73
2023/11/18 10:01:53;;;;;;;9.65;6.13;;;8.90;79.60;;;;;;4957324;28;20082;-74
2023/11/18 10:04:20;;;;;;;9.30;6.50;;;9.00;79.60;;;;;;4956817;28;20023;-74
2023/11/18 10:06:48;;;;;;;8.77;5.97;;;9.00;79.60;;;;;;4956405;29;20381;-73
2023/11/18 10:09:19;;;;;;;8.98;6.78;;;9.00;79.70;;;;;;4956815;29;20046;-73
2023/11/18 10:11:47;;;;;;;7.65;5.28;;;9.00;79.60;;;;;;4937645;29;20036;-74
2023/11/18 10:14:17;;;;;;;8.55;6.22;;;9.00;79.70;;;;;;4950655;29;20035;-74
2023/11/18 10:16:47;;;;;;;8.48;6.15;;;9.00;79.70;;;;;;4936931;29;20036;-73
2023/11/18 10:19:14;;;;;;;8.70;5.50;;;9.00;79.70;;;;;;4953390;29;20027;-73
2023/11/18 10:21:40;;;;;;;8.70;6.07;;;9.10;79.70;;;;;;4955784;29;20063;-73
2023/11/18 10:24:19;;;;;;;8.60;5.47;;;9.10;79.60;;;;;;4939810;29;20062;-74
2023/11/18 10:26:54;;;;;;;7.68;5.13;;;9.10;79.70;;;;;;4956584;29;20039;-73
2023/11/18 10:29:19;;;;;;;;;;;9.10;79.60;;;;;;4957510;29;20035;-73
2023/11/18 10:31:45;;;;;;;7.43;4.93;;;9.00;79.50;;;;;;4956797;29;19998;-73
2023/11/18 10:34:15;;;;;;;8.48;5.60;;;9.10;79.40;;;;;;4936475;29;20027;-74
2023/11/18 10:36:41;;;;;;;6.43;5.00;;;9.10;79.50;;;;;;4953708;29;20483;-73
2023/11/18 10:39:14;;;;;;;7.00;5.03;;;9.10;79.60;;;;;;4956530;28;20479;-73
2023/11/18 10:41:43;;;;;;;7.25;5.25;;;9.10;79.70;;;;;;4939397;29;20402;-74
2023/11/18 10:44:13;;;;;;;6.90;4.90;;;9.10;79.70;;;;;;4956543;29;20027;-73
2023/11/18 10:46:53;;;;;;;7.90;5.57;;;9.10;79.60;;;;;;4955133;29;20129;-73
2023/11/18 10:49:20;;;;;;;6.70;4.70;;;9.10;79.70;;;;;;4955132;29;20046;-73
2023/11/18 10:51:47;;;;;;;7.70;5.35;;;9.10;79.60;;;;;;4954962;29;20027;-73
2023/11/18 10:54:17;;;;;;;7.60;4.63;;;9.20;79.70;;;;;;4956235;29;20037;-73
2023/11/18 10:56:49;;;;;;;7.43;4.85;;;9.20;79.70;;;;;;4956227;29;20042;-73
2023/11/18 10:59:16;;;;;;;8.48;5.22;;;9.20;79.70;;;;;;4956019;29;20468;-73
2023/11/18 11:01:43;;;;;;;7.90;4.93;;;9.20;80.30;;;;;;4955874;28;20035;-74
2023/11/18 11:04:12;;;;;;;8.18;5.22;;;9.20;79.70;;;;;;4956009;28;20082;-73
2023/11/18 11:06:52;;;;;;;7.90;5.38;;;9.20;79.70;;;;;;4952488;29;20415;-73
2023/11/18 11:09:26;;;;;;;7.45;5.13;;;9.20;79.70;;;;;;4951237;29;20059;-73
2023/11/18 11:12:03;;;;;;;;;;;9.20;79.70;;;;;;4954160;28;20032;-73
2023/11/18 11:14:43;;;;;;;7.25;4.63;;;9.20;79.50;;;;;;4954644;29;19911;-74
2023/11/18 11:17:17;;;;;;;7.07;4.53;;;9.30;79.50;;;;;;4956124;29;20365;-74
2023/11/18 11:23:22;;;;;;;6.68;4.30;;;9.30;79.70;;;;;;4954596;28;20039;-73
2023/11/18 11:25:57;;;;;;;5.95;3.88;;;9.30;79.70;;;;;;4948195;29;20022;-73
2023/11/18 11:28:23;;;;;;;6.50;4.40;;;9.30;80.30;;;;;;4955619;29;20039;-73
2023/11/18 11:31:10;;;;;;;6.60;4.30;;;9.30;79.60;;;;;;4938553;29;20484;-73
2023/11/18 11:33:55;;;;;;;5.93;4.22;;;9.30;79.70;;;;;;4944254;29;20294;-74
2023/11/18 11:36:24;;;;;;;6.67;4.37;;;9.30;79.70;;;;;;4955361;29;20086;-74
2023/11/18 11:38:52;;;;;;;6.50;4.55;;;9.30;79.60;;;;;;4955559;29;20361;-73
2023/11/18 11:41:26;;;;;;;6.68;4.35;;;9.30;79.70;;;;;;4955463;29;20073;-74
2023/11/18 11:43:57;;;;;;;6.25;3.97;;;9.30;79.70;;;;;;4952905;29;20106;-74
2023/11/18 11:46:32;;;;;;;5.97;4.28;;;9.40;79.70;;;;;;4955631;29;20491;-74
2023/11/18 11:49:00;;;;;;;;;;;9.40;79.70;;;;;;4953429;29;20051;-74
2023/11/18 11:51:37;;;;;;;5.35;3.58;;;9.40;79.60;;;;;;4955236;28;19910;-74
2023/11/18 11:54:28;;;;;;;5.95;3.92;;;9.40;79.50;;;;;;4936700;28;20062;-74
2023/11/18 11:56:59;;;;;;;4.47;3.30;;;9.40;79.70;;;;;;4953560;29;20122;-75
2023/11/18 11:59:55;;;;;;;6.15;4.03;;;9.40;79.60;;;;;;4955261;28;20031;-74
2023/11/18 12:02:28;;;;;;;4.75;3.47;;;9.40;79.80;;;;;;4949475;29;20058;-76
2023/11/18 12:04:58;;;;;;;5.82;4.15;;;9.40;79.70;;;;;;4953487;29;20078;-75
2023/11/18 12:07:28;;;;;;;8.68;4.47;;;9.40;79.70;;;;;;4949656;29;20114;-74
2023/11/18 12:10:00;;;;;;;5.72;3.92;;;9.50;79.80;;;;;;4954052;29;20040;-74
2023/11/18 12:12:27;;;;;;;6.00;4.00;;;9.40;79.70;;;;;;4954755;29;20455;-76
2023/11/18 12:15:00;;;;;;;6.18;3.67;;;9.50;79.70;;;;;;4959607;29;20039;-75
2023/11/18 12:17:31;;;;;;;5.70;4.07;;;9.50;79.70;;;;;;4958400;28;20068;-74
2023/11/18 12:20:06;;;;;;;6.25;3.95;;;9.50;79.70;;;;;;4958771;29;20038;-74
2023/11/18 12:23:14;;;;;;;6.13;3.67;;;9.50;79.70;;;;;;4955994;28;20058;-75
2023/11/18 12:25:45;;;;;;;5.85;3.45;;;9.60;79.80;;;;;;4946158;29;20035;-75
2023/11/18 12:28:21;;;;;;;4.75;3.55;;;9.60;79.70;;;;;;4952449;29;20054;-75
2023/11/18 12:30:55;;;;;;;6.10;4.20;;;9.60;79.70;;;;;;4952179;29;20039;-76
2023/11/18 12:33:30;;;;;;;5.55;3.55;;;9.60;79.70;;;;;;4948914;29;20030;-74
2023/11/18 12:36:08;;;;;;;4.65;3.30;;;9.60;79.70;;;;;;4952169;29;20027;-75
2023/11/18 12:38:57;;;;;;;4.68;3.45;;;9.60;79.70;;;;;;4949659;29;20043;-75
2023/11/18 12:41:41;;;;;;;6.00;3.80;;;9.60;79.70;;;;;;4951603;29;20035;-75
2023/11/18 12:44:31;;;;;;;4.93;3.50;;;9.60;79.70;;;;;;4948532;29;20028;-74
2023/11/18 12:47:09;;;;;;;4.82;3.30;;;9.60;79.80;;;;;;4935559;29;20377;-74
2023/11/18 12:49:41;;;;;;;5.65;3.53;;;9.60;79.60;;;;;;4953299;29;20498;-76
2023/11/18 12:52:14;;;;;;;5.40;3.65;;;9.70;79.70;;;;;;4953669;28;20373;-77
2023/11/18 12:54:43;;;;;;;5.07;3.50;;;9.70;79.80;;;;;;4952685;29;20031;-77
2023/11/18 12:57:14;;;;;;;5.75;3.15;;;9.70;79.80;;;;;;4935703;29;20106;-76
2023/11/18 12:59:40;;;;;;;5.75;3.67;;;9.70;79.80;;;;;;4948990;28;20037;-76
2023/11/18 13:02:07;;;;;;;4.63;3.17;;;9.70;80.40;;;;;;4933644;29;20035;-75
2023/11/18 13:04:40;;;;;;;5.00;3.35;;;9.70;79.80;;;;;;4947371;29;20059;-76